Time;durP1;ratioP1;P1;durP2;ratioP2;P2;SDS_P1;SDS_P2;PMS_P1;PMS_P2;Temp;Humidity;BMP_temperature;BMP_pressure;BME280_temperature;BME280_humidity;BME280_pressure;Samples;Min_cycle;Max_cycle;Signal;HPM_P1;HPM_P2
2023/09/05 00:00:14;;;;;;;5.32;4.80;;;16.50;99.90;;;;;;5048709;28;20049;-81
2023/09/05 00:02:41;;;;;;;6.80;5.45;;;16.50;99.90;;;;;;5047987;28;20072;-80
2023/09/05 00:05:11;;;;;;;7.75;5.60;;;16.50;99.90;;;;;;5062876;28;20036;-81
2023/09/05 00:07:38;;;;;;;6.13;5.53;;;16.50;99.90;;;;;;5058086;28;20045;-81
2023/09/05 00:10:11;;;;;;;6.47;5.65;;;16.50;99.90;;;;;;5038494;28;20041;-81
2023/09/05 00:12:42;;;;;;;6.18;5.60;;;16.50;99.90;;;;;;5044802;28;20041;-81
2023/09/05 00:15:14;;;;;;;6.63;6.03;;;16.50;99.90;;;;;;5057297;28;20048;-81
2023/09/05 00:17:42;;;;;;;7.82;6.10;;;16.80;99.90;;;;;;5043493;28;20511;-81
2023/09/05 00:20:08;;;;;;;6.32;5.82;;;16.50;99.90;;;;;;5079406;28;20038;-81
2023/09/05 00:22:34;;;;;;;7.13;6.05;;;16.50;99.90;;;;;;5040240;28;20158;-81
2023/09/05 00:25:00;;;;;;;7.30;6.25;;;15.40;99.90;;;;;;5036113;28;20044;-81
2023/09/05 00:27:26;;;;;;;8.88;6.50;;;16.50;99.90;;;;;;5040591;28;20408;-80
2023/09/05 00:29:52;;;;;;;7.63;7.03;;;16.40;99.90;;;;;;5041003;28;20041;-81
2023/09/05 00:32:18;;;;;;;6.68;6.07;;;16.40;99.90;;;;;;5045916;28;20029;-81
2023/09/05 00:34:44;;;;;;;7.72;7.03;;;16.40;99.90;;;;;;5044272;28;20067;-81
2023/09/05 00:37:10;;;;;;;8.00;7.00;;;16.30;99.90;;;;;;5047207;28;20037;-81
2023/09/05 00:39:40;;;;;;;6.80;6.10;;;16.70;99.90;;;;;;5058708;28;20125;-81
2023/09/05 00:42:09;;;;;;;6.80;6.18;;;16.20;99.90;;;;;;5053506;28;20049;-81
2023/09/05 00:44:35;;;;;;;6.53;5.93;;;16.20;99.90;;;;;;5057061;28;20037;-81
2023/09/05 00:47:01;;;;;;;8.15;6.55;;;16.20;99.90;;;;;;5052952;28;20102;-82
2023/09/05 00:49:27;;;;;;;7.10;6.40;;;16.20;99.90;;;;;;5055321;28;20052;-82
2023/09/05 00:52:02;;;;;;;9.35;6.20;;;16.20;99.90;;;;;;5052018;28;20055;-81
2023/09/05 00:54:29;;;;;;;6.85;5.95;;;16.10;99.90;;;;;;5046568;28;20040;-82
2023/09/05 00:56:55;;;;;;;8.15;7.35;;;16.30;99.90;;;;;;5052229;28;20037;-81
2023/09/05 00:59:21;;;;;;;7.20;6.57;;;16.10;99.90;;;;;;5051642;28;20041;-82
2023/09/05 01:01:48;;;;;;;8.15;7.38;;;16.20;99.90;;;;;;5053183;28;20132;-82
2023/09/05 01:04:14;;;;;;;8.02;7.38;;;16.00;99.90;;;;;;5052099;28;20545;-82
2023/09/05 01:06:46;;;;;;;9.02;7.28;;;16.00;99.90;;;;;;5054207;28;20064;-81
2023/09/05 01:09:29;;;;;;;8.02;7.32;;;15.90;99.90;;;;;;5050848;28;20099;-82
2023/09/05 01:11:56;;;;;;;9.18;6.80;;;15.90;99.90;;;;;;5050830;28;20603;-82
2023/09/05 01:14:22;;;;;;;8.27;7.57;;;16.50;99.90;;;;;;5053147;28;20127;-82
2023/09/05 01:16:48;;;;;;;8.82;7.53;;;15.80;99.90;;;;;;5050580;28;20117;-81
2023/09/05 01:19:15;;;;;;;11.65;7.20;;;15.80;99.90;;;;;;5046204;28;20040;-81
2023/09/05 01:22:06;;;;;;;7.55;6.88;;;15.80;99.90;;;;;;5048183;28;20052;-81
2023/09/05 01:24:35;;;;;;;8.02;7.32;;;15.70;99.90;;;;;;5048347;28;20520;-82
2023/09/05 01:27:03;;;;;;;9.65;8.27;;;15.70;99.90;;;;;;5038954;28;20501;-82
2023/09/05 01:29:34;;;;;;;7.57;6.68;;;15.70;99.90;;;;;;5041745;28;20033;-82
2023/09/05 01:32:02;;;;;;;9.77;7.93;;;15.60;99.90;;;;;;5045262;28;20571;-82
2023/09/05 01:34:27;;;;;;;8.02;7.25;;;15.60;99.90;;;;;;5046371;28;20063;-82
2023/09/05 01:36:53;;;;;;;7.63;7.03;;;15.60;99.90;;;;;;5044438;28;20416;-82
2023/09/05 01:39:19;;;;;;;9.25;7.78;;;15.60;99.90;;;;;;5048913;28;20110;-81
2023/09/05 01:41:48;;;;;;;7.97;7.28;;;15.60;99.90;;;;;;5043706;28;20055;-81
2023/09/05 01:44:14;;;;;;;7.10;6.50;;;15.60;99.90;;;;;;5039783;28;20473;-81
2023/09/05 01:46:40;;;;;;;7.25;6.55;;;16.20;99.90;;;;;;5036880;28;20449;-82
2023/09/05 01:49:05;;;;;;;8.02;7.22;;;15.50;99.90;;;;;;5048790;28;20099;-81
2023/09/05 01:51:31;;;;;;;9.98;8.00;;;15.50;99.90;;;;;;5049639;28;20394;-81
2023/09/05 01:53:57;;;;;;;7.97;7.32;;;15.50;99.90;;;;;;5037712;28;20069;-81
2023/09/05 01:56:23;;;;;;;8.40;7.15;;;15.40;99.90;;;;;;5041903;28;20049;-82
2023/09/05 01:58:48;;;;;;;7.28;6.68;;;15.40;99.90;;;;;;5039959;28;20401;-82
2023/09/05 02:01:14;;;;;;;8.48;7.70;;;15.40;99.90;;;;;;5036915;28;20402;-81
2023/09/05 02:03:40;;;;;;;9.63;8.20;;;15.40;99.90;;;;;;5024869;28;20044;-82
2023/09/05 02:06:05;;;;;;;8.73;7.95;;;15.40;99.90;;;;;;5048627;28;20083;-82
2023/09/05 02:08:33;;;;;;;10.07;8.38;;;15.40;99.90;;;;;;5050072;28;20028;-81
2023/09/05 02:10:59;;;;;;;8.73;7.82;;;15.30;99.90;;;;;;5049064;28;20492;-82
2023/09/05 02:13:24;;;;;;;9.35;8.40;;;15.30;99.90;;;;;;5049906;28;20045;-81
2023/09/05 02:15:50;;;;;;;8.98;8.00;;;15.30;99.90;;;;;;5045428;28;20041;-82
2023/09/05 02:18:16;;;;;;;8.65;7.95;;;15.30;99.90;;;;;;5048339;28;20538;-82
2023/09/05 02:20:41;;;;;;;9.25;8.27;;;15.20;99.90;;;;;;5048724;28;20103;-81
2023/09/05 02:23:07;;;;;;;8.40;7.63;;;15.30;99.90;;;;;;5047493;28;20075;-82
2023/09/05 02:25:33;;;;;;;8.05;7.22;;;15.20;99.90;;;;;;5049993;28;20044;-82
2023/09/05 02:27:59;;;;;;;8.73;7.57;;;15.20;99.90;;;;;;5048153;28;20658;-82
2023/09/05 02:30:26;;;;;;;8.95;6.88;;;15.20;99.90;;;;;;5051225;28;20040;-81
2023/09/05 02:32:56;;;;;;;8.50;7.60;;;15.20;99.90;;;;;;5046514;28;20045;-82
2023/09/05 02:35:25;;;;;;;11.98;8.73;;;15.20;99.90;;;;;;5039683;28;20104;-82
2023/09/05 02:37:52;;;;;;;9.30;8.02;;;15.30;99.90;;;;;;5052073;28;20053;-82
2023/09/05 02:40:18;;;;;;;10.05;9.07;;;15.20;99.90;;;;;;5055433;28;20049;-82
2023/09/05 02:42:45;;;;;;;10.52;9.52;;;15.20;99.90;;;;;;5049449;28;20123;-81
2023/09/05 02:45:12;;;;;;;10.88;8.50;;;15.70;99.90;;;;;;5045977;28;20759;-82
2023/09/05 02:47:38;;;;;;;10.77;9.68;;;15.20;99.90;;;;;;5049405;28;20047;-81
2023/09/05 02:50:05;;;;;;;9.68;8.82;;;15.10;99.90;;;;;;5042990;28;20563;-81
2023/09/05 02:52:32;;;;;;;10.10;8.85;;;15.10;99.90;;;;;;5046384;28;20396;-81
2023/09/05 02:54:58;;;;;;;9.20;8.38;;;15.10;99.90;;;;;;5049294;28;20579;-82
2023/09/05 02:57:24;;;;;;;9.15;8.40;;;15.10;99.90;;;;;;5048183;28;20533;-81
2023/09/05 02:59:56;;;;;;;9.38;8.63;;;15.00;99.90;;;;;;5040684;28;20119;-82
2023/09/05 03:02:25;;;;;;;9.90;8.98;;;15.00;99.90;;;;;;5039390;28;20045;-81
2023/09/05 03:04:54;;;;;;;9.35;8.48;;;15.00;99.90;;;;;;5043486;28;20041;-81
2023/09/05 03:07:23;;;;;;;8.57;7.60;;;15.00;99.90;;;;;;5040256;28;20105;-82
2023/09/05 03:09:52;;;;;;;9.93;7.97;;;15.00;99.90;;;;;;5035855;28;20110;-81
2023/09/05 03:12:18;;;;;;;10.07;9.07;;;16.20;99.90;;;;;;5046951;28;20401;-81
2023/09/05 03:14:46;;;;;;;8.82;7.90;;;15.00;99.90;;;;;;5035745;28;20053;-81
2023/09/05 03:17:12;;;;;;;10.23;9.32;;;15.00;99.90;;;;;;5042216;28;20044;-82
2023/09/05 03:19:39;;;;;;;13.27;9.27;;;15.00;99.90;;;;;;5029135;28;20037;-81
2023/09/05 03:22:08;;;;;;;9.45;8.55;;;15.50;99.90;;;;;;5042362;28;20051;-81
2023/09/05 03:24:34;;;;;;;10.98;9.88;;;14.90;99.90;;;;;;5038232;28;20056;-81
2023/09/05 03:27:00;;;;;;;9.90;8.90;;;15.00;99.90;;;;;;5040806;28;20029;-80
2023/09/05 03:29:26;;;;;;;11.95;9.70;;;14.90;99.90;;;;;;5036210;28;20038;-81
2023/09/05 03:31:52;;;;;;;11.50;9.50;;;15.20;99.90;;;;;;5047017;28;20485;-81
2023/09/05 03:34:19;;;;;;;9.88;8.55;;;14.90;99.90;;;;;;5060327;28;20546;-81
2023/09/05 03:36:45;;;;;;;12.52;10.55;;;14.90;99.90;;;;;;5045953;28;20047;-81
2023/09/05 03:39:10;;;;;;;12.50;9.75;;;14.90;99.90;;;;;;5045309;28;20393;-81
2023/09/05 03:41:36;;;;;;;10.38;9.32;;;14.90;99.90;;;;;;5041938;28;20052;-82
2023/09/05 03:44:02;;;;;;;11.20;10.10;;;14.90;99.90;;;;;;5046032;28;20043;-81
2023/09/05 03:46:27;;;;;;;11.35;9.32;;;14.90;99.90;;;;;;5038088;28;20030;-81
2023/09/05 03:48:55;;;;;;;10.63;9.63;;;16.20;99.90;;;;;;5078462;28;20048;-81
2023/09/05 03:51:21;;;;;;;11.57;10.38;;;14.80;99.90;;;;;;5048793;28;20040;-81
2023/09/05 03:53:47;;;;;;;9.30;8.50;;;14.70;99.90;;;;;;5036811;28;20462;-81
2023/09/05 03:56:12;;;;;;;9.85;8.95;;;14.80;99.90;;;;;;5044655;28;20516;-81
2023/09/05 03:58:38;;;;;;;11.40;10.10;;;14.90;99.90;;;;;;5041045;28;20102;-81
2023/09/05 04:01:04;;;;;;;10.15;9.25;;;15.20;99.90;;;;;;5046279;28;20049;-81
2023/09/05 04:03:33;;;;;;;9.55;8.38;;;14.80;99.90;;;;;;5042781;28;20851;-81
2023/09/05 04:06:01;;;;;;;10.70;9.70;;;14.80;99.90;;;;;;5043792;28;20052;-80
2023/09/05 04:08:27;;;;;;;10.27;9.15;;;15.00;99.90;;;;;;5044738;28;20059;-81
2023/09/05 04:10:59;;;;;;;10.80;9.43;;;15.10;99.90;;;;;;5046105;28;20033;-82
2023/09/05 04:13:28;;;;;;;9.45;8.55;;;14.90;99.90;;;;;;5048540;28;20497;-81
2023/09/05 04:15:54;;;;;;;10.57;9.68;;;14.90;99.90;;;;;;5045537;28;20037;-81
2023/09/05 04:18:19;;;;;;;11.52;9.40;;;14.80;99.90;;;;;;5047697;28;20051;-82
2023/09/05 04:20:46;;;;;;;10.82;9.77;;;15.20;99.90;;;;;;5052920;28;20065;-82
2023/09/05 04:23:12;;;;;;;11.82;9.95;;;14.80;99.90;;;;;;5053579;28;20130;-81
2023/09/05 04:25:40;;;;;;;11.05;9.95;;;14.70;99.90;;;;;;5057647;28;20033;-82
2023/09/05 04:28:09;;;;;;;11.52;10.43;;;14.70;99.90;;;;;;5057152;28;20407;-82
2023/09/05 04:30:35;;;;;;;11.00;10.00;;;14.70;99.90;;;;;;5055083;28;20055;-81
2023/09/05 04:33:03;;;;;;;11.48;10.27;;;14.70;99.90;;;;;;5055070;28;20067;-82
2023/09/05 04:35:29;;;;;;;11.45;10.35;;;14.60;99.90;;;;;;5053775;28;20124;-82
2023/09/05 04:37:55;;;;;;;14.15;10.80;;;14.60;99.90;;;;;;5053121;28;20057;-82
2023/09/05 04:40:21;;;;;;;11.32;9.90;;;14.70;99.90;;;;;;5044590;28;20033;-81
2023/09/05 04:42:47;;;;;;;12.95;9.30;;;14.60;99.90;;;;;;5051772;28;20049;-81
2023/09/05 04:45:13;;;;;;;12.02;10.75;;;14.70;99.90;;;;;;5048611;28;20082;-81
2023/09/05 04:47:38;;;;;;;12.65;11.32;;;14.60;99.90;;;;;;5047048;28;20212;-81
2023/09/05 04:50:05;;;;;;;13.95;9.85;;;14.60;99.90;;;;;;5050466;28;20044;-82
2023/09/05 04:52:31;;;;;;;11.73;10.55;;;14.60;99.90;;;;;;5052010;28;20033;-81
2023/09/05 04:55:01;;;;;;;11.65;10.65;;;14.50;99.90;;;;;;5051955;28;20127;-81
2023/09/05 04:57:28;;;;;;;11.10;10.10;;;14.50;99.90;;;;;;5050700;28;20115;-81
2023/09/05 04:59:59;;;;;;;11.13;10.13;;;14.50;99.90;;;;;;5046999;28;20071;-82
2023/09/05 05:02:26;;;;;;;12.57;11.27;;;14.50;99.90;;;;;;5053083;28;20517;-82
2023/09/05 05:04:53;;;;;;;13.20;11.23;;;14.50;99.90;;;;;;5049749;28;20060;-81
2023/09/05 05:07:19;;;;;;;11.65;10.15;;;14.50;99.90;;;;;;5048143;28;20058;-82
2023/09/05 05:09:45;;;;;;;12.07;10.73;;;14.50;99.90;;;;;;5081441;28;20404;-82
2023/09/05 05:12:13;;;;;;;12.15;10.93;;;16.20;99.90;;;;;;5044566;28;20049;-81
2023/09/05 05:14:38;;;;;;;11.30;10.13;;;14.40;99.90;;;;;;5042231;28;20110;-82
2023/09/05 05:17:04;;;;;;;14.95;11.27;;;14.40;99.90;;;;;;5052197;28;20490;-81
2023/09/05 05:19:30;;;;;;;13.00;9.68;;;14.40;99.90;;;;;;5046143;28;20096;-82
2023/09/05 05:21:56;;;;;;;10.65;9.57;;;14.40;99.90;;;;;;5044166;28;20552;-81
2023/09/05 05:24:22;;;;;;;13.35;10.95;;;15.50;99.90;;;;;;5038019;28;20042;-80
2023/09/05 05:26:48;;;;;;;11.30;10.27;;;14.50;99.90;;;;;;5037463;28;20602;-81
2023/09/05 05:29:14;;;;;;;12.75;11.25;;;14.50;99.90;;;;;;5054153;28;20079;-82
2023/09/05 05:31:40;;;;;;;12.30;11.00;;;14.60;99.90;;;;;;5032917;28;20064;-81
2023/09/05 05:34:06;;;;;;;13.00;11.38;;;14.50;99.90;;;;;;5028325;28;20445;-82
2023/09/05 05:36:32;;;;;;;11.82;10.40;;;14.50;99.90;;;;;;5036887;28;20442;-81
2023/09/05 05:39:02;;;;;;;12.18;11.10;;;15.40;99.90;;;;;;5048704;28;20072;-81
2023/09/05 05:41:28;;;;;;;12.65;11.50;;;14.50;99.90;;;;;;5050350;28;20049;-81
2023/09/05 05:43:55;;;;;;;13.80;12.18;;;14.40;99.90;;;;;;5044750;28;20146;-82
2023/09/05 05:46:21;;;;;;;14.23;11.13;;;14.50;99.90;;;;;;5050734;28;20055;-81
2023/09/05 05:48:47;;;;;;;11.05;10.05;;;14.50;99.90;;;;;;5043914;28;20049;-81
2023/09/05 05:51:16;;;;;;;14.68;11.20;;;14.40;99.90;;;;;;5045809;28;20044;-81
2023/09/05 05:53:42;;;;;;;11.32;10.27;;;14.50;99.90;;;;;;5045747;28;20057;-81
2023/09/05 05:56:09;;;;;;;10.95;9.85;;;15.70;99.90;;;;;;5047812;28;20044;-82
2023/09/05 05:58:35;;;;;;;12.13;10.95;;;14.80;99.90;;;;;;5043066;28;20048;-81
2023/09/05 06:01:01;;;;;;;15.68;10.45;;;14.50;99.90;;;;;;5047977;28;20041;-82
2023/09/05 06:03:27;;;;;;;11.43;9.98;;;14.50;99.90;;;;;;5041790;28;20063;-87
2023/09/05 06:05:54;;;;;;;10.63;9.45;;;14.60;99.90;;;;;;5046206;28;20047;-86
2023/09/05 06:08:20;;;;;;;10.45;8.40;;;14.80;99.90;;;;;;4351907;28;10000708;-86
2023/09/05 06:10:47;;;;;;;10.10;9.10;;;14.60;99.90;;;;;;5047120;28;20041;-85
2023/09/05 06:13:13;;;;;;;10.30;9.40;;;14.60;99.90;;;;;;5077283;28;20072;-89
2023/09/05 06:15:39;;;;;;;11.75;10.63;;;15.40;99.90;;;;;;5050788;28;20045;-87
2023/09/05 06:18:05;;;;;;;10.02;9.05;;;15.80;99.90;;;;;;5051462;28;20561;-85
2023/09/05 06:20:32;;;;;;;10.43;9.40;;;14.80;99.90;;;;;;5040980;28;20116;-84
2023/09/05 06:22:59;;;;;;;10.32;9.30;;;14.80;99.90;;;;;;5048304;28;20458;-83
2023/09/05 06:25:24;;;;;;;9.80;8.85;;;14.90;99.90;;;;;;5042871;28;20397;-83
2023/09/05 06:27:50;;;;;;;10.80;9.70;;;14.90;99.90;;;;;;5052148;28;20051;-84
2023/09/05 06:30:16;;;;;;;10.93;9.82;;;14.90;99.90;;;;;;5047937;28;20052;-83
2023/09/05 06:32:42;;;;;;;12.73;9.30;;;14.90;99.90;;;;;;5049566;28;20122;-83
2023/09/05 06:35:11;;;;;;;13.20;10.75;;;15.90;99.90;;;;;;5051179;28;20503;-82
2023/09/05 06:37:37;;;;;;;10.90;9.70;;;15.10;99.90;;;;;;5048554;28;20044;-83
2023/09/05 06:40:09;;;;;;;10.52;9.43;;;15.10;99.90;;;;;;5046658;28;20041;-83
2023/09/05 06:42:39;;;;;;;12.02;9.00;;;15.10;99.90;;;;;;5046814;28;20111;-84
2023/09/05 06:45:05;;;;;;;11.55;8.63;;;15.10;99.90;;;;;;5048783;28;20122;-83
2023/09/05 06:47:31;;;;;;;9.70;8.85;;;15.20;99.90;;;;;;5052675;28;20067;-81
2023/09/05 06:49:56;;;;;;;12.38;9.43;;;15.60;99.90;;;;;;5077406;28;21583;-81
2023/09/05 06:52:22;;;;;;;10.80;8.73;;;15.30;99.90;;;;;;5037723;28;20052;-81
2023/09/05 06:54:48;;;;;;;10.50;9.40;;;15.40;99.90;;;;;;5036808;28;20052;-81
2023/09/05 06:57:15;;;;;;;10.52;9.63;;;15.40;99.90;;;;;;5049086;28;20044;-81
2023/09/05 06:59:41;;;;;;;10.07;9.15;;;15.40;99.90;;;;;;5048984;28;20047;-81
2023/09/05 07:02:07;;;;;;;9.52;8.65;;;15.50;99.90;;;;;;5044552;28;20436;-81
2023/09/05 07:04:34;;;;;;;9.43;8.45;;;15.50;99.90;;;;;;5036366;28;20107;-82
2023/09/05 07:07:03;;;;;;;9.15;8.18;;;15.80;99.90;;;;;;5036660;28;20041;-82
2023/09/05 07:09:29;;;;;;;9.07;8.18;;;15.60;99.90;;;;;;5036893;28;20037;-82
2023/09/05 07:11:54;;;;;;;8.95;8.15;;;16.10;99.90;;;;;;5068780;28;20037;-82
2023/09/05 07:14:20;;;;;;;9.15;8.27;;;16.00;99.90;;;;;;5037123;28;20080;-82
2023/09/05 07:16:46;;;;;;;9.27;8.43;;;15.80;99.90;;;;;;5059842;28;20052;-82
2023/09/05 07:19:11;;;;;;;9.00;7.63;;;15.90;99.90;;;;;;5039555;28;20050;-82
2023/09/05 07:21:40;;;;;;;9.65;8.63;;;15.90;99.90;;;;;;5038897;28;20053;-82
2023/09/05 07:24:09;;;;;;;8.93;8.13;;;16.00;99.90;;;;;;5035459;28;20052;-82
2023/09/05 07:26:36;;;;;;;9.25;8.32;;;16.10;99.90;;;;;;5037528;28;20401;-82
2023/09/05 07:29:02;;;;;;;9.02;8.13;;;16.20;99.90;;;;;;5041315;28;20037;-82
2023/09/05 07:31:31;;;;;;;9.25;8.38;;;16.30;99.90;;;;;;5036235;28;20041;-82
2023/09/05 07:33:58;;;;;;;12.38;8.13;;;16.40;99.90;;;;;;5035805;28;20174;-82
2023/09/05 07:36:23;;;;;;;8.93;8.13;;;16.50;99.90;;;;;;5037260;28;20120;-82
2023/09/05 07:38:49;;;;;;;11.48;7.68;;;16.60;99.90;;;;;;5035478;28;20132;-83
2023/09/05 07:41:15;;;;;;;8.68;7.80;;;16.60;99.90;;;;;;5037720;28;20033;-82
2023/09/05 07:43:41;;;;;;;8.32;7.55;;;16.70;99.90;;;;;;5042051;28;20080;-82
2023/09/05 07:46:06;;;;;;;7.72;6.93;;;16.80;99.90;;;;;;5034914;28;20033;-83
2023/09/05 07:48:32;;;;;;;8.32;6.53;;;16.90;99.90;;;;;;5036813;28;20051;-82
2023/09/05 07:51:06;;;;;;;8.00;7.20;;;16.90;99.90;;;;;;5036301;28;20378;-82
2023/09/05 07:53:35;;;;;;;7.55;6.28;;;16.90;99.90;;;;;;5038242;28;20386;-82
2023/09/05 07:56:02;;;;;;;11.95;6.53;;;17.10;99.90;;;;;;5047029;28;20037;-83
2023/09/05 07:58:27;;;;;;;6.53;6.03;;;17.20;99.90;;;;;;5038421;28;20065;-82
2023/09/05 08:00:54;;;;;;;10.40;6.65;;;18.10;99.90;;;;;;5038411;28;20119;-82
2023/09/05 08:03:20;;;;;;;7.70;6.38;;;17.40;99.90;;;;;;5039960;28;20048;-82
2023/09/05 08:05:47;;;;;;;6.53;5.97;;;17.40;99.90;;;;;;5050329;28;20041;-82
2023/09/05 08:08:14;;;;;;;7.00;6.30;;;17.50;99.90;;;;;;5051963;28;20041;-83
2023/09/05 08:10:41;;;;;;;6.10;5.57;;;17.60;99.90;;;;;;5046369;28;20041;-82
2023/09/05 08:13:08;;;;;;;6.18;5.55;;;17.70;99.90;;;;;;5045479;28;20049;-83
2023/09/05 08:15:33;;;;;;;6.68;5.95;;;17.80;99.90;;;;;;5046743;28;20041;-83
2023/09/05 08:17:59;;;;;;;5.32;4.75;;;17.90;99.90;;;;;;5048974;28;20110;-82
2023/09/05 08:20:25;;;;;;;7.28;5.57;;;18.30;99.90;;;;;;5048781;28;20102;-83
2023/09/05 08:22:51;;;;;;;7.60;6.10;;;17.90;99.90;;;;;;5043815;28;20045;-82
2023/09/05 08:25:18;;;;;;;9.13;5.63;;;18.00;99.90;;;;;;5050019;28;20102;-83
2023/09/05 08:27:45;;;;;;;6.03;5.53;;;18.10;99.90;;;;;;5048852;28;20041;-84
2023/09/05 08:30:13;;;;;;;5.97;5.20;;;18.10;99.90;;;;;;5053416;28;20032;-82
2023/09/05 08:32:39;;;;;;;5.20;4.50;;;18.20;99.90;;;;;;5050688;28;20044;-85
2023/09/05 08:35:10;;;;;;;6.65;5.53;;;18.40;99.90;;;;;;5051105;28;20037;-83
2023/09/05 08:37:36;;;;;;;6.25;5.07;;;18.40;99.90;;;;;;5049610;28;20030;-83
2023/09/05 08:40:03;;;;;;;10.75;5.43;;;18.50;99.90;;;;;;5053001;28;20049;-84
2023/09/05 08:42:32;;;;;;;4.78;4.38;;;18.50;99.90;;;;;;5060738;28;20063;-84
2023/09/05 08:44:59;;;;;;;5.40;4.93;;;18.70;99.90;;;;;;5066227;28;20041;-84
2023/09/05 08:47:31;;;;;;;4.88;4.47;;;18.80;99.90;;;;;;5062554;28;20404;-83
2023/09/05 08:49:59;;;;;;;10.27;4.03;;;18.80;99.90;;;;;;5057597;28;20065;-83
2023/09/05 08:52:36;;;;;;;5.25;4.10;;;19.00;99.90;;;;;;5051169;28;20041;-83
2023/09/05 08:55:03;;;;;;;5.60;4.05;;;19.10;99.90;;;;;;5044917;28;20474;-84
2023/09/05 08:57:31;;;;;;;4.93;3.88;;;19.20;99.90;;;;;;5053024;28;20162;-83
2023/09/05 08:59:57;;;;;;;5.97;3.97;;;19.40;99.90;;;;;;5045941;28;20091;-82
2023/09/05 09:02:23;;;;;;;3.92;3.63;;;19.40;99.90;;;;;;5055473;28;20152;-82
2023/09/05 09:04:57;;;;;;;3.40;3.10;;;20.10;99.90;;;;;;5048960;28;20497;-83
2023/09/05 09:07:29;;;;;;;6.03;3.53;;;19.60;99.90;;;;;;5047086;28;20552;-84
2023/09/05 09:09:59;;;;;;;5.55;3.17;;;19.70;99.90;;;;;;5052845;28;20522;-84
2023/09/05 09:12:32;;;;;;;3.15;2.95;;;19.90;99.90;;;;;;5053647;28;20075;-90
2023/09/05 09:15:12;;;;;;;3.72;3.22;;;20.00;99.90;;;;;;5059531;28;20032;-87
2023/09/05 09:17:42;;;;;;;3.08;2.72;;;20.00;99.90;;;;;;5053693;28;20048;-83
2023/09/05 09:20:12;;;;;;;3.42;2.83;;;20.10;99.90;;;;;;5056174;28;20041;-83
2023/09/05 09:22:42;;;;;;;4.25;2.78;;;20.30;99.90;;;;;;5047273;28;20421;-90
2023/09/05 09:25:21;;;;;;;2.90;2.38;;;20.30;99.90;;;;;;5059668;28;20041;-87
2023/09/05 09:27:54;;;;;;;3.15;2.78;;;20.40;99.90;;;;;;5043465;28;20041;-89
2023/09/05 09:30:24;;;;;;;3.38;3.08;;;20.60;99.90;;;;;;5063243;28;20041;-89
2023/09/05 09:32:51;;;;;;;3.15;2.50;;;20.60;99.90;;;;;;5037442;28;20042;-90
2023/09/05 09:35:17;;;;;;;4.93;2.72;;;20.60;99.90;;;;;;5050169;28;20480;-89
2023/09/05 09:37:47;;;;;;;2.20;1.98;;;20.60;99.90;;;;;;5052887;28;20040;-89
2023/09/05 09:40:16;;;;;;;4.47;2.42;;;20.70;99.90;;;;;;5051860;28;20052;-90
2023/09/05 09:42:49;;;;;;;2.90;2.70;;;20.80;99.90;;;;;;5034203;28;20045;-89
2023/09/05 09:45:19;;;;;;;3.92;2.47;;;20.80;99.90;;;;;;5061053;28;20037;-89
2023/09/05 09:47:49;;;;;;;3.70;2.28;;;20.90;99.90;;;;;;5035947;28;20098;-89
2023/09/05 09:50:16;;;;;;;3.80;2.60;;;21.00;99.90;;;;;;5052245;28;20051;-89
2023/09/05 09:52:44;;;;;;;2.40;2.20;;;21.10;99.90;;;;;;5051549;28;20052;-88
2023/09/05 09:55:16;;;;;;;3.47;2.60;;;21.20;99.90;;;;;;5034954;28;20040;-89
2023/09/05 09:57:56;;;;;;;3.92;2.10;;;21.30;99.90;;;;;;5052362;28;20041;-89
2023/09/05 10:00:23;;;;;;;4.75;2.25;;;21.40;99.90;;;;;;5052264;28;20048;-89
2023/09/05 10:02:49;;;;;;;3.08;2.45;;;21.50;99.90;;;;;;5052515;28;20071;-89
2023/09/05 10:05:16;;;;;;;2.85;2.00;;;21.60;99.90;;;;;;5050370;28;20107;-89
2023/09/05 10:07:46;;;;;;;3.70;2.22;;;21.70;99.90;;;;;;5035164;28;20037;-89
2023/09/05 10:10:17;;;;;;;3.70;2.38;;;21.70;99.90;;;;;;5051366;28;20586;-89
2023/09/05 10:12:47;;;;;;;2.80;2.60;;;21.80;99.90;;;;;;5044986;28;20358;-89
2023/09/05 10:15:15;;;;;;;2.40;2.20;;;21.80;99.90;;;;;;5051772;28;20053;-91
2023/09/05 10:17:42;;;;;;;4.82;2.20;;;22.00;99.90;;;;;;5051805;28;20037;-91
2023/09/05 10:20:09;;;;;;;2.35;2.20;;;22.10;99.90;;;;;;5034094;28;20044;-89
2023/09/05 10:22:43;;;;;;;5.95;2.10;;;22.20;99.90;;;;;;5052333;28;20611;-89
2023/09/05 10:25:13;;;;;;;2.25;2.15;;;22.30;99.90;;;;;;5060905;28;20059;-90
2023/09/05 10:27:39;;;;;;;3.33;1.92;;;22.50;99.90;;;;;;5053385;28;20048;-83
2023/09/05 10:30:07;;;;;;;1.85;1.75;;;22.50;99.90;;;;;;5050454;28;20049;-82
2023/09/05 10:32:32;;;;;;;4.57;2.10;;;22.50;99.90;;;;;;5051868;28;20044;-82
2023/09/05 10:35:02;;;;;;;2.25;1.63;;;22.70;99.90;;;;;;5048886;28;20037;-82
2023/09/05 10:37:28;;;;;;;2.40;1.70;;;22.70;99.90;;;;;;5051105;28;20048;-83
2023/09/05 10:39:56;;;;;;;2.60;1.60;;;22.80;99.90;;;;;;5053586;28;20409;-83
2023/09/05 10:42:29;;;;;;;2.60;1.92;;;22.90;99.90;;;;;;5046291;28;20072;-83
2023/09/05 10:44:55;;;;;;;3.00;1.50;;;23.00;99.90;;;;;;5050851;28;20045;-83
2023/09/05 10:47:35;;;;;;;3.33;1.52;;;23.20;99.90;;;;;;5050829;28;20072;-83
2023/09/05 10:50:05;;;;;;;1.60;1.50;;;23.20;99.90;;;;;;5053987;28;20077;-83
2023/09/05 10:52:30;;;;;;;1.38;1.27;;;23.40;99.90;;;;;;5052446;28;20060;-81
2023/09/05 10:54:58;;;;;;;4.68;1.48;;;23.40;99.90;;;;;;5048223;28;20088;-81
2023/09/05 10:57:42;;;;;;;2.10;1.58;;;23.60;99.90;;;;;;5051512;28;20092;-81
2023/09/05 11:00:14;;;;;;;1.60;1.50;;;23.70;99.90;;;;;;5042054;28;20048;-82
2023/09/05 11:02:41;;;;;;;3.35;1.80;;;23.80;99.90;;;;;;5022953;28;20045;-83
2023/09/05 11:05:11;;;;;;;3.20;1.70;;;23.90;99.90;;;;;;5043084;28;20053;-83
2023/09/05 11:07:42;;;;;;;1.85;1.75;;;24.00;99.90;;;;;;5038809;28;20083;-83
2023/09/05 11:10:11;;;;;;;1.70;1.48;;;24.10;99.90;;;;;;5049979;28;20099;-82
2023/09/05 11:12:38;;;;;;;3.70;1.38;;;24.20;99.90;;;;;;5049396;28;20056;-83
2023/09/05 11:15:05;;;;;;;4.78;1.67;;;24.30;99.90;;;;;;5047321;28;20043;-83
2023/09/05 11:17:31;;;;;;;3.95;1.80;;;24.50;99.90;;;;;;5050360;28;20049;-83
2023/09/05 11:19:57;;;;;;;2.35;1.23;;;24.50;99.90;;;;;;5074336;28;20048;-83
2023/09/05 11:22:25;;;;;;;1.85;1.20;;;24.60;99.90;;;;;;5052462;28;20408;-84
2023/09/05 11:25:00;;;;;;;5.22;1.55;;;24.80;99.90;;;;;;5041698;28;20052;-83
2023/09/05 11:27:30;;;;;;;1.63;1.50;;;24.90;99.90;;;;;;5043111;28;20042;-82
2023/09/05 11:30:02;;;;;;;2.28;1.58;;;25.00;99.90;;;;;;5037855;28;20045;-81
2023/09/05 11:32:31;;;;;;;2.50;1.27;;;25.10;99.90;;;;;;5048786;28;20041;-83
2023/09/05 11:34:58;;;;;;;2.05;1.50;;;25.10;99.90;;;;;;5053295;28;20370;-82
2023/09/05 11:37:25;;;;;;;1.52;1.10;;;25.30;99.90;;;;;;5050702;28;20049;-82
2023/09/05 11:39:51;;;;;;;3.45;1.02;;;25.40;99.90;;;;;;5045078;28;20080;-82
2023/09/05 11:42:30;;;;;;;3.40;1.58;;;25.50;99.90;;;;;;5045605;28;20086;-81
2023/09/05 11:44:57;;;;;;;1.17;1.08;;;25.60;99.90;;;;;;5047524;28;20084;-82
2023/09/05 11:47:25;;;;;;;1.10;1.00;;;25.80;99.90;;;;;;5048159;28;20044;-82
2023/09/05 11:49:53;;;;;;;1.55;1.35;;;25.90;99.90;;;;;;5044307;28;20041;-83
2023/09/05 11:52:20;;;;;;;2.15;1.27;;;26.00;99.90;;;;;;5047731;28;20041;-83
2023/09/05 11:54:48;;;;;;;1.02;0.70;;;26.00;99.90;;;;;;5046344;28;20041;-84
2023/09/05 11:57:19;;;;;;;4.13;1.42;;;26.10;99.90;;;;;;5064619;28;20496;-84
2023/09/05 11:59:46;;;;;;;1.50;1.40;;;26.20;99.90;;;;;;5037662;28;20041;-84
2023/09/05 12:02:15;;;;;;;2.92;1.17;;;26.30;99.90;;;;;;5051350;28;20367;-83
2023/09/05 12:04:41;;;;;;;3.97;1.05;;;26.30;99.90;;;;;;5050149;28;20044;-83
2023/09/05 12:07:08;;;;;;;1.33;1.20;;;26.40;99.90;;;;;;5044830;28;20045;-83
2023/09/05 12:09:34;;;;;;;2.28;1.10;;;26.60;99.90;;;;;;5045850;28;20042;-85
2023/09/05 12:12:07;;;;;;;2.55;1.40;;;26.60;99.90;;;;;;5042549;28;20520;-85
2023/09/05 12:14:56;;;;;;;2.88;1.40;;;26.70;99.90;;;;;;5047941;28;20036;-85
2023/09/05 12:17:24;;;;;;;1.40;1.13;;;26.80;99.90;;;;;;5043674;28;20041;-86
2023/09/05 12:19:51;;;;;;;1.88;0.75;;;27.00;99.90;;;;;;5075562;28;20099;-85
2023/09/05 12:22:28;;;;;;;3.45;1.20;;;27.00;99.90;;;;;;5048027;28;20195;-85
2023/09/05 12:25:16;;;;;;;2.45;1.38;;;27.10;99.90;;;;;;5053505;28;20496;-86
2023/09/05 12:27:44;;;;;;;2.00;1.13;;;27.20;99.90;;;;;;5063513;28;20080;-86
2023/09/05 12:30:25;;;;;;;4.82;1.48;;;27.20;99.90;;;;;;5036592;28;20481;-85
2023/09/05 12:32:57;;;;;;;1.67;1.00;;;27.40;99.90;;;;;;5050091;28;20041;-85
2023/09/05 12:35:25;;;;;;;1.50;1.40;;;27.50;99.90;;;;;;5053103;28;20059;-84
2023/09/05 12:37:51;;;;;;;2.83;1.15;;;27.50;99.90;;;;;;5055564;28;20614;-85
2023/09/05 12:40:17;;;;;;;2.60;0.80;;;27.60;99.90;;;;;;5052909;28;20123;-81
2023/09/05 12:42:46;;;;;;;2.78;0.90;;;27.70;99.90;;;;;;5054228;28;20077;-84
2023/09/05 12:45:13;;;;;;;2.92;1.10;;;27.70;99.90;;;;;;5046024;28;20079;-86